Bald Mountain, New York
Current Conditions -  °F | °C
As of 3:53 AM on Wednesday 28 Jan 2015 (Local Time) from KGFL Reporting Station
Broken Clouds Broken Clouds  
Wind Chill:   Ceiling: 3600
Heat Index: 14°   Visibility: 10mi
Dew Point:   Wind: 8mph
Humidity: 62%   Direction: 50°NE
Pressure: 29.92"   Gusts: NA
Location:  43.09°N, 73.5018°W
Report Text: KGFL 280853Z AUTO 05007KT 10SM BKN036 M10/M16 A2992 RMK AO2 SLP146 T11001161 53016
Loading
Personal Weather Stations






























Interactive Weather Map New forecast layout! Learn more

10-Day Weather Forecast

Advertisements
Track Severe Weather on mobile